Time;durP1;ratioP1;P1;durP2;ratioP2;P2;SDS_P1;SDS_P2;PMS_P1;PMS_P2;Temp;Humidity;BMP_temperature;BMP_pressure;BME280_temperature;BME280_humidity;BME280_pressure;Samples;Min_cycle;Max_cycle;Signal;HPM_P1;HPM_P2
2023/01/19 00:00:48;;;;;;;12.40;6.30;;;;;;;5.37;100.00;98709.59;109868;1281;22194;-61
2023/01/19 00:03:16;;;;;;;15.90;7.00;;;;;;;5.44;100.00;98710.42;109857;1276;22297;-61
2023/01/19 00:05:43;;;;;;;15.60;7.00;;;;;;;5.51;100.00;98710.48;109726;1281;138790;-61
2023/01/19 00:08:16;;;;;;;20.10;7.10;;;;;;;5.55;100.00;98707.10;109872;1275;22892;-61
2023/01/19 00:10:47;;;;;;;16.50;6.60;;;;;;;5.55;100.00;98707.11;109753;1282;139984;-61
2023/01/19 00:13:14;;;;;;;18.80;7.70;;;;;;;5.60;100.00;98720.21;109796;1280;23551;-61
2023/01/19 00:15:41;;;;;;;;;;;;;;;5.60;100.00;98728.48;109851;1277;23573;-61
2023/01/19 00:18:07;;;;;;;15.90;7.10;;;;;;;5.60;100.00;98745.40;109762;1282;124342;-62
2023/01/19 00:20:37;;;;;;;18.50;9.10;;;;;;;5.59;100.00;98756.35;109845;1282;23642;-61
2023/01/19 00:23:04;;;;;;;18.60;7.80;;;;;;;5.56;100.00;98759.80;109755;1276;139022;-61
2023/01/19 00:25:31;;;;;;;17.70;9.10;;;;;;;5.51;100.00;98746.80;109839;1282;22478;-61
2023/01/19 00:27:58;;;;;;;20.00;7.90;;;;;;;5.49;100.00;98735.84;109756;1276;22261;-62
2023/01/19 00:30:27;;;;;;;18.90;7.60;;;;;;;5.50;100.00;98735.53;109692;1282;139331;-62
2023/01/19 00:32:54;;;;;;;;;;;;;;;5.53;100.00;98748.23;109871;1282;23096;-61
2023/01/19 00:35:21;;;;;;;21.10;7.10;;;;;;;5.54;100.00;98754.90;109650;1281;124919;-61
2023/01/19 00:37:47;;;;;;;17.30;6.40;;;;;;;5.54;100.00;98748.04;109839;1281;22414;-61
2023/01/19 00:40:14;;;;;;;18.00;7.50;;;;;;;5.55;100.00;98750.97;109885;1281;22293;-61
2023/01/19 00:42:44;;;;;;;19.50;8.90;;;;;;;5.55;100.00;98749.46;109842;1281;22226;-61
2023/01/19 00:45:13;;;;;;;17.40;7.20;;;;;;;5.55;100.00;98738.20;109865;1282;22242;-61
2023/01/19 00:47:40;;;;;;;19.30;6.80;;;;;;;5.55;100.00;98748.92;109761;1280;138185;-61
2023/01/19 00:50:08;;;;;;;;;;;;;;;5.54;100.00;98756.56;109880;1281;22445;-61
2023/01/19 00:52:34;;;;;;;19.20;7.10;;;;;;;5.54;100.00;98757.54;109775;1280;124654;-61
2023/01/19 00:55:01;;;;;;;16.40;6.70;;;;;;;5.56;100.00;98744.98;109845;1279;22214;-61
2023/01/19 00:57:28;;;;;;;16.80;6.80;;;;;;;5.59;100.00;98739.10;109826;1281;22176;-61
2023/01/19 00:59:55;;;;;;;15.90;6.10;;;;;;;5.62;100.00;98745.59;109785;1281;139047;-61
2023/01/19 01:02:22;;;;;;;;;;;;;;;5.64;100.00;98751.55;109853;1281;22641;-61
2023/01/19 01:04:53;;;;;;;18.50;6.50;;;;;;;5.64;100.00;98744.90;109797;1281;126516;-61
2023/01/19 01:07:21;;;;;;;12.40;6.50;;;;;;;5.63;100.00;98744.88;109826;1281;22226;-61
2023/01/19 01:09:47;;;;;;;10.40;5.30;;;;;;;5.62;100.00;98745.64;109843;1281;23284;-60
2023/01/19 01:12:14;;;;;;;16.70;6.50;;;;;;;5.59;100.00;98744.52;109747;1276;138713;-61
2023/01/19 01:14:41;;;;;;;17.00;7.70;;;;;;;5.56;100.00;98738.55;109860;1281;22217;-61
2023/01/19 01:17:10;;;;;;;;;;;;;;;5.52;100.00;98737.40;109782;1275;141880;-61
2023/01/19 01:19:37;;;;;;;9.30;5.40;;;;;;;5.48;100.00;98751.67;109894;1280;22209;-61
2023/01/19 01:22:04;;;;;;;12.40;5.80;;;;;;;5.45;100.00;98759.44;109878;1281;22891;-61
2023/01/19 01:24:31;;;;;;;6.70;4.50;;;;;;;5.40;100.00;98761.52;109739;1281;138694;-61
2023/01/19 01:26:58;;;;;;;7.20;5.40;;;;;;;5.36;100.00;98761.02;109882;1281;23203;-61
2023/01/19 01:29:25;;;;;;;8.70;5.50;;;;;;;5.26;100.00;98753.06;109721;1275;138502;-60
2023/01/19 01:31:52;;;;;;;11.50;4.20;;;;;;;5.25;100.00;98759.46;109850;1281;22403;-61
2023/01/19 02:17:57;;;;;;;23.60;10.10;;;;;;;4.99;100.00;98802.36;103028;1298;557657;-62
2023/01/19 02:20:25;;;;;;;13.90;8.30;;;;;;;5.07;100.00;98796.42;104437;1290;119977;-62
2023/01/19 02:22:52;;;;;;;24.10;9.00;;;;;;;5.06;100.00;98797.16;104598;1287;137631;-62
2023/01/19 02:25:19;;;;;;;18.80;8.80;;;;;;;5.06;100.00;98799.21;104614;1292;24369;-61
2023/01/19 02:27:46;;;;;;;18.10;8.70;;;;;;;5.05;100.00;98799.42;108973;1289;23413;-62
2023/01/19 02:30:15;;;;;;;17.90;9.30;;;;;;;5.03;100.00;98797.06;108892;1292;137998;-62
2023/01/19 02:32:42;;;;;;;16.40;8.80;;;;;;;5.00;100.00;98801.15;109088;1292;22226;-60
2023/01/19 02:35:10;;;;;;;22.60;10.80;;;;;;;4.97;100.00;98798.71;108979;1292;137828;-60
2023/01/19 05:01:09;;;;;;;26.50;16.10;;;;;;;4.01;100.00;98845.02;103445;1295;558645;-61
2023/01/19 05:03:36;;;;;;;25.30;15.30;;;;;;;4.09;100.00;98838.48;104594;1291;100617;-61
2023/01/19 05:06:03;;;;;;;23.00;14.70;;;;;;;4.07;100.00;98838.08;104774;1285;138892;-61
2023/01/19 05:08:30;;;;;;;24.20;14.70;;;;;;;4.00;100.00;98853.41;104865;1285;22538;-62
2023/01/19 05:10:57;;;;;;;23.60;15.70;;;;;;;3.87;100.00;98848.39;104841;1290;138184;-62
2023/01/19 05:13:24;;;;;;;22.40;14.80;;;;;;;3.83;100.00;98857.95;105046;1283;22533;-62
2023/01/19 05:15:50;;;;;;;;;;;;;;;3.73;100.00;98854.24;105061;1286;22860;-63
2023/01/19 05:18:17;;;;;;;24.10;14.70;;;;;;;3.67;100.00;98856.27;104886;1290;124897;-62
2023/01/19 05:20:44;;;;;;;25.10;15.20;;;;;;;3.64;100.00;98855.61;104916;1290;22555;-62
2023/01/19 05:23:10;;;;;;;21.40;15.10;;;;;;;3.66;100.00;98850.58;104676;1290;138901;-62
2023/01/19 05:25:37;;;;;;;;;;;;;;;3.68;100.00;98852.95;104906;1288;22523;-62
2023/01/19 05:28:04;;;;;;;20.30;14.40;;;;;;;3.70;100.00;98858.85;104903;1285;22545;-62
2023/01/19 05:30:30;;;;;;;24.20;14.90;;;;;;;3.72;100.00;98841.71;104755;1284;138043;-63
2023/01/19 05:32:57;;;;;;;23.70;14.90;;;;;;;3.75;100.00;98838.39;104844;1288;22842;-63
2023/01/19 05:35:25;;;;;;;25.20;15.10;;;;;;;3.72;100.00;98851.60;104840;1290;138072;-61
2023/01/19 05:38:01;;;;;;;25.50;14.90;;;;;;;3.75;100.00;98866.30;104906;1291;25582;-62
2023/01/19 05:40:28;;;;;;;24.20;14.70;;;;;;;3.73;100.00;98864.41;105078;1282;24154;-63
2023/01/19 05:42:59;;;;;;;21.60;15.10;;;;;;;3.71;100.00;98860.70;104837;1282;139562;-62
2023/01/19 05:45:27;;;;;;;21.90;15.80;;;;;;;3.72;100.00;98863.38;109289;1291;23278;-62
2023/01/19 05:47:54;;;;;;;23.50;15.80;;;;;;;3.73;100.00;98862.76;109079;1292;138579;-63
2023/01/19 05:50:20;;;;;;;;;;;;;;;3.73;100.00;98873.33;109214;1292;22525;-62
2023/01/19 05:52:47;;;;;;;27.10;18.40;;;;;;;3.76;100.00;98883.45;109073;1285;23256;-63
2023/01/19 05:55:15;;;;;;;;;;;;;;;3.80;100.00;98861.80;109061;1291;137672;-62
2023/01/19 05:57:42;;;;;;;35.10;21.60;;;;;;;3.84;100.00;98847.20;109234;1291;22537;-63
2023/01/19 06:00:09;;;;;;;32.90;22.40;;;;;;;3.87;100.00;98859.46;109075;1291;138573;-63
2023/01/19 06:02:36;;;;;;;35.60;24.50;;;;;;;3.92;100.00;98868.66;109192;1291;22322;-63
2023/01/19 06:05:03;;;;;;;;;;;;;;;3.97;100.00;98865.20;109111;1285;138030;-62
2023/01/19 06:07:30;;;;;;;38.40;25.00;;;;;;;4.02;100.00;98870.23;109278;1285;22360;-62
2023/01/19 06:09:57;;;;;;;40.20;25.50;;;;;;;4.06;100.00;98866.70;109170;1292;22217;-63
2023/01/19 06:12:24;;;;;;;41.60;25.60;;;;;;;4.09;100.00;98860.27;108894;1293;138749;-63
2023/01/19 06:14:51;;;;;;;35.40;23.00;;;;;;;4.12;100.00;98844.75;109077;1293;22862;-62
2023/01/19 06:17:17;;;;;;;38.30;24.50;;;;;;;4.15;100.00;98815.23;108846;1290;139836;-62
2023/01/19 06:19:44;;;;;;;;;;;;;;;4.17;100.00;98792.84;108946;1294;22494;-63
2023/01/19 06:22:11;;;;;;;35.10;22.70;;;;;;;4.17;100.00;98775.00;108985;1287;23522;-63
2023/01/19 06:24:38;;;;;;;38.00;22.70;;;;;;;4.17;100.00;98767.66;108984;1291;137889;-62
2023/01/19 06:27:05;;;;;;;36.40;19.50;;;;;;;4.17;100.00;98758.24;109174;1291;22229;-63
2023/01/19 06:29:32;;;;;;;34.00;18.50;;;;;;;4.18;100.00;98738.41;109083;1291;138500;-62
2023/01/19 06:31:58;;;;;;;28.30;17.30;;;;;;;4.19;100.00;98726.98;109193;1285;22353;-63
2023/01/19 06:34:27;;;;;;;;;;;;;;;4.23;100.00;98723.57;109154;1285;22442;-63
2023/01/19 06:36:55;;;;;;;33.90;16.10;;;;;;;4.25;100.00;98719.19;108988;1292;125576;-62
2023/01/19 06:39:21;;;;;;;38.30;19.70;;;;;;;4.32;100.00;98718.42;109053;1288;22430;-62
2023/01/19 06:41:48;;;;;;;;;;;;;;;4.37;100.00;98717.57;109009;1285;138046;-63
2023/01/19 06:44:15;;;;;;;43.00;25.20;;;;;;;4.42;100.00;98712.49;109135;1291;22191;-63
2023/01/19 06:46:42;;;;;;;41.40;22.90;;;;;;;4.47;100.00;98713.20;109180;1291;23130;-62
2023/01/19 06:49:08;;;;;;;;;;;;;;;4.51;100.00;98701.40;109055;1291;138325;-62
2023/01/19 06:51:35;;;;;;;48.20;28.80;;;;;;;4.55;100.00;98691.52;109224;1285;22347;-62
2023/01/19 06:54:02;;;;;;;46.70;27.10;;;;;;;4.60;100.00;98690.98;109180;1285;138103;-63
2023/01/19 06:56:29;;;;;;;41.20;24.00;;;;;;;4.65;100.00;98685.59;109217;1291;22406;-62
2023/01/19 06:58:55;;;;;;;;;;;;;;;4.71;100.00;98685.88;109099;1285;139493;-62
2023/01/19 07:01:22;;;;;;;23.00;15.40;;;;;;;4.76;100.00;98685.92;109146;1285;23372;-62
2023/01/19 07:03:49;;;;;;;;;;;;;;;4.82;100.00;98691.77;109209;1285;23037;-62
2023/01/19 07:06:15;;;;;;;22.10;14.00;;;;;;;4.87;100.00;98697.16;109078;1286;123954;-63
2023/01/19 07:08:42;;;;;;;18.60;12.10;;;;;;;4.90;100.00;98710.07;108951;1290;22242;-62
2023/01/19 07:11:10;;;;;;;;;;;;;;;4.91;100.00;98714.27;108963;1285;138043;-62
2023/01/19 07:13:56;;;;;;;11.50;6.90;;;;;;;4.85;100.00;98715.84;109275;1285;22274;-63
2023/01/19 07:16:23;;;;;;;11.50;6.70;;;;;;;4.71;100.00;98722.90;109296;1291;23647;-63
2023/01/19 07:18:49;;;;;;;10.20;7.00;;;;;;;4.57;100.00;98724.30;109108;1292;138087;-63
2023/01/19 07:21:16;;;;;;;;;;;;;;;4.45;100.00;98725.14;109192;1292;23203;-63
2023/01/19 07:23:43;;;;;;;14.40;8.60;;;;;;;4.37;100.00;98724.30;109060;1286;125701;-63
2023/01/19 07:26:10;;;;;;;;;;;;;;;4.28;100.00;98724.72;109065;1286;22475;-63
2023/01/19 07:28:36;;;;;;;26.70;7.50;;;;;;;4.19;100.00;98732.44;109106;1292;22265;-63
2023/01/19 07:31:03;;;;;;;32.80;7.40;;;;;;;4.07;100.00;98723.27;109705;1276;137885;-63
2023/01/19 07:33:30;;;;;;;21.90;7.70;;;;;;;3.95;100.00;98722.46;109804;1283;22259;-63
2023/01/19 07:35:57;;;;;;;16.70;9.60;;;;;;;3.85;100.00;98715.89;109639;1284;137916;-63
2023/01/19 07:38:24;;;;;;;20.30;7.90;;;;;;;3.79;100.00;98720.64;109727;1284;22241;-63
2023/01/19 07:40:51;;;;;;;;;;;;;;;3.75;100.00;98720.21;106469;1277;24414;-62
2023/01/19 07:43:17;;;;;;;8.70;5.80;;;;;;;3.69;100.00;98709.46;105200;1283;124314;-62
2023/01/19 07:45:44;;;;;;;18.10;6.80;;;;;;;3.65;100.00;98710.98;105385;1278;24218;-62
2023/01/19 07:48:11;;;;;;;12.90;6.30;;;;;;;3.60;100.00;98715.70;105392;1283;138334;-62
2023/01/19 07:50:38;;;;;;;13.80;6.00;;;;;;;3.54;100.00;98720.42;105319;1282;25288;-62
2023/01/19 07:53:05;;;;;;;10.30;8.10;;;;;;;3.50;100.00;98728.98;105173;1276;139406;-62
2023/01/19 07:55:31;;;;;;;17.20;7.80;;;;;;;3.44;100.00;98722.54;109814;1283;22161;-63
2023/01/19 07:57:58;;;;;;;9.10;6.30;;;;;;;3.46;100.00;98721.19;109818;1283;22384;-63
2023/01/19 08:00:25;;;;;;;12.00;6.30;;;;;;;3.45;100.00;98721.55;109695;1280;139358;-62
2023/01/19 08:02:52;;;;;;;;;;;;;;;3.44;100.00;98720.77;109806;1276;23248;-62
2023/01/19 08:05:19;;;;;;;25.00;7.50;;;;;;;3.44;100.00;98719.95;109692;1279;124167;-62
2023/01/19 08:07:47;;;;;;;10.60;6.60;;;;;;;3.43;100.00;98721.66;109718;1284;23428;-62
2023/01/19 08:10:14;;;;;;;10.70;7.30;;;;;;;3.43;100.00;98714.78;109674;1277;22274;-62
2023/01/19 08:12:41;;;;;;;21.30;7.80;;;;;;;3.44;100.00;98711.26;109599;1283;139592;-62
2023/01/19 08:15:09;;;;;;;12.00;7.40;;;;;;;3.47;100.00;98712.21;109766;1284;22203;-62
2023/01/19 08:17:36;;;;;;;10.40;6.40;;;;;;;3.49;100.00;98714.91;109589;1283;138686;-62
2023/01/19 08:20:02;;;;;;;;;;;;;;;3.52;100.00;98725.23;109799;1283;22523;-62
2023/01/19 08:22:29;;;;;;;11.20;6.60;;;;;;;3.54;100.00;98734.70;109838;1283;22298;-62
2023/01/19 08:24:56;;;;;;;9.50;7.10;;;;;;;3.53;100.00;98741.95;109694;1282;139067;-62
2023/01/19 08:27:23;;;;;;;10.20;6.10;;;;;;;3.53;100.00;98751.53;109745;1278;22339;-62
2023/01/19 08:29:49;;;;;;;;;;;;;;;3.54;100.00;98758.61;109635;1281;140514;-62
2023/01/19 08:32:16;;;;;;;8.20;5.20;;;;;;;3.51;100.00;98754.33;109476;1283;23041;-62
2023/01/19 08:34:43;;;;;;;;;;;;;;;3.49;100.00;98750.44;109586;1281;22673;-62
2023/01/19 08:37:10;;;;;;;6.70;4.90;;;;;;;3.46;100.00;98743.38;109670;1283;126331;-62
2023/01/19 08:39:37;;;;;;;10.30;5.80;;;;;;;3.45;100.00;98734.98;108852;1284;22715;-62
2023/01/19 08:42:04;;;;;;;5.80;5.10;;;;;;;3.45;100.00;98737.71;105087;1278;138035;-61
2023/01/19 08:44:30;;;;;;;6.80;6.10;;;;;;;3.45;100.00;98746.38;105114;1277;24270;-61
2023/01/19 08:46:58;;;;;;;;;;;;;;;3.45;100.00;98750.59;105070;1282;137760;-61
2023/01/19 08:49:25;;;;;;;7.20;5.90;;;;;;;3.46;100.00;98750.06;105342;1283;22994;-61
2023/01/19 08:51:52;;;;;;;;;;;;;;;3.46;100.00;98749.36;105296;1283;25399;-61
2023/01/19 08:54:20;;;;;;;9.60;7.40;;;;;;;3.47;100.00;98750.45;105188;1275;124615;-62
2023/01/19 08:56:47;;;;;;;10.40;8.20;;;;;;;3.48;100.00;98754.04;105353;1283;25351;-61
2023/01/19 08:59:14;;;;;;;;;;;;;;;3.50;100.00;98755.92;105228;1283;138006;-61
2023/01/19 09:01:40;;;;;;;9.50;8.10;;;;;;;3.54;100.00;98757.52;105144;1283;24205;-62
2023/01/19 09:04:07;;;;;;;10.50;8.60;;;;;;;3.57;100.00;98753.51;105287;1277;25351;-61
2023/01/19 09:06:34;;;;;;;12.50;10.50;;;;;;;3.57;100.00;98748.30;105179;1283;138442;-61
2023/01/19 09:09:01;;;;;;;;;;;;;;;3.64;100.00;98760.17;105363;1275;22515;-62
2023/01/19 09:11:28;;;;;;;9.70;7.70;;;;;;;3.68;100.00;98763.14;105370;1275;125511;-61
2023/01/19 09:13:55;;;;;;;13.00;10.00;;;;;;;3.72;100.00;98768.85;105358;1283;22563;-61
2023/01/19 09:16:21;;;;;;;13.40;9.30;;;;;;;3.75;100.00;98761.17;105306;1278;26127;-61
2023/01/19 09:18:48;;;;;;;;;;;;;;;3.80;100.00;98753.63;105210;1279;138531;-61
2023/01/19 09:21:15;;;;;;;12.50;9.10;;;;;;;3.84;100.00;98754.02;105414;1275;24969;-61
2023/01/19 09:23:42;;;;;;;12.20;10.00;;;;;;;3.88;100.00;98749.27;105289;1283;139220;-61
2023/01/19 09:26:08;;;;;;;;;;;;;;;3.92;100.00;98751.33;105374;1277;22514;-61
2023/01/19 09:28:36;;;;;;;12.80;8.70;;;;;;;3.96;100.00;98744.64;105434;1278;24286;-61
2023/01/19 09:31:05;;;;;;;12.20;9.30;;;;;;;3.99;100.00;98735.92;105410;1281;138222;-60
2023/01/19 09:33:32;;;;;;;12.00;9.20;;;;;;;4.03;100.00;98737.52;105424;1277;22762;-61
2023/01/19 09:35:59;;;;;;;13.40;10.00;;;;;;;4.06;100.00;98735.16;109678;1283;141961;-61
2023/01/19 09:38:30;;;;;;;11.60;9.40;;;;;;;4.10;100.00;98733.15;109837;1282;22191;-63
2023/01/19 09:40:57;;;;;;;15.80;9.80;;;;;;;4.14;100.00;98726.95;109710;1283;138822;-60
2023/01/19 09:43:32;;;;;;;16.70;10.70;;;;;;;4.18;100.00;98722.29;109732;1277;22394;-62
2023/01/19 09:46:01;;;;;;;14.80;9.10;;;;;;;4.23;100.00;98718.29;109673;1277;22349;-62
2023/01/19 09:48:46;;;;;;;15.00;9.80;;;;;;;4.27;100.00;98711.64;109566;1278;137994;-61
2023/01/19 09:51:40;;;;;;;11.70;9.00;;;;;;;4.32;100.00;98698.39;109689;1278;22254;-61
2023/01/19 09:54:13;;;;;;;11.80;9.50;;;;;;;4.37;100.00;98691.67;109619;1283;138307;-61
2023/01/19 09:56:41;;;;;;;13.20;10.20;;;;;;;4.41;100.00;98696.58;109831;1283;23256;-61
2023/01/19 09:59:19;;;;;;;12.70;10.20;;;;;;;4.45;100.00;98693.85;109669;1283;139226;-61
2023/01/19 10:02:05;;;;;;;16.20;11.20;;;;;;;4.48;100.00;98687.38;109852;1275;22221;-61
2023/01/19 13:27:27;;;;;;;43.50;14.80;;;;;;;6.89;100.00;98581.54;103291;1296;558072;-61
2023/01/19 13:29:54;;;;;;;48.80;16.10;;;;;;;7.02;100.00;98588.27;104466;1292;98882;-61
2023/01/19 13:32:23;;;;;;;44.10;14.80;;;;;;;7.02;100.00;98586.77;105122;1280;137834;-61
2023/01/19 13:34:52;;;;;;;32.10;14.80;;;;;;;7.08;100.00;98600.48;109892;1279;22214;-62
2023/01/19 13:37:23;;;;;;;34.10;13.10;;;;;;;7.11;100.00;98597.92;109892;1280;22239;-62
2023/01/19 13:39:51;;;;;;;42.20;12.30;;;;;;;7.13;100.00;98607.85;109725;1278;138631;-60
2023/01/19 13:42:28;;;;;;;43.40;12.60;;;;;;;7.15;100.00;98603.27;109866;1280;22245;-62
2023/01/19 13:44:57;;;;;;;41.80;11.70;;;;;;;7.17;100.00;98596.03;109808;1280;138962;-62
2023/01/19 13:47:29;;;;;;;32.80;14.20;;;;;;;7.19;100.00;98591.51;109843;1280;22219;-62
2023/01/19 13:49:56;;;;;;;38.60;12.80;;;;;;;7.21;100.00;98591.63;109864;1280;22628;-62
2023/01/19 13:52:25;;;;;;;46.40;15.70;;;;;;;7.24;100.00;98595.98;109803;1274;138505;-62
2023/01/19 13:54:58;;;;;;;45.20;12.80;;;;;;;7.26;100.00;98600.05;109888;1280;22170;-62
2023/01/19 13:57:32;;;;;;;34.00;13.20;;;;;;;7.29;100.00;98601.48;109831;1280;138523;-62
2023/01/19 14:00:10;;;;;;;36.90;13.00;;;;;;;7.31;100.00;98602.65;109957;1273;22304;-62
2023/01/19 14:02:41;;;;;;;44.80;13.50;;;;;;;7.33;100.00;98608.42;109817;1280;138711;-62
2023/01/19 14:05:31;;;;;;;43.40;14.60;;;;;;;7.36;100.00;98607.66;109931;1278;22237;-62
2023/01/19 14:08:11;;;;;;;45.80;16.10;;;;;;;7.40;100.00;98611.21;109890;1274;22818;-62
2023/01/19 14:10:40;;;;;;;50.30;18.50;;;;;;;7.41;100.00;98605.27;109923;1281;22239;-62
2023/01/19 14:13:25;;;;;;;42.80;15.00;;;;;;;7.44;100.00;98608.12;109905;1276;23172;-62
2023/01/19 14:15:54;;;;;;;37.70;12.70;;;;;;;7.46;100.00;98613.28;109704;1275;139202;-62
2023/01/19 14:18:26;;;;;;;42.10;14.40;;;;;;;7.48;100.00;98613.02;109733;1278;22196;-62
2023/01/19 14:21:00;;;;;;;48.80;17.20;;;;;;;7.50;100.00;98619.38;109807;1278;138434;-62
2023/01/19 14:23:37;;;;;;;41.00;13.90;;;;;;;7.52;100.00;98619.48;109892;1275;22264;-62
2023/01/19 14:26:05;;;;;;;35.80;11.60;;;;;;;7.54;100.00;98628.18;109814;1281;22215;-62
2023/01/19 14:28:41;;;;;;;34.80;10.20;;;;;;;7.55;100.00;98627.42;109734;1281;137794;-62
2023/01/19 14:31:19;;;;;;;31.70;11.10;;;;;;;7.57;100.00;98634.48;109871;1281;23220;-62
2023/01/19 14:33:47;;;;;;;39.40;12.00;;;;;;;7.59;100.00;98629.89;109729;1281;138509;-62
2023/01/19 14:36:13;;;;;;;36.80;12.20;;;;;;;7.61;100.00;98631.88;109896;1281;22184;-62
2023/01/19 14:38:46;;;;;;;55.10;20.10;;;;;;;7.62;100.00;98631.51;109747;1275;138270;-62
2023/01/19 14:41:41;;;;;;;39.00;17.20;;;;;;;7.63;100.00;98635.52;105884;1278;25320;-61
2023/01/19 14:44:09;;;;;;;58.00;15.60;;;;;;;7.61;100.00;98629.97;108766;1280;22183;-60
2023/01/19 14:46:36;;;;;;;42.30;16.60;;;;;;;7.65;100.00;98633.30;109772;1281;138010;-61
2023/01/19 14:49:04;;;;;;;45.40;16.40;;;;;;;7.66;100.00;98635.42;109831;1281;22303;-60
2023/01/19 14:51:31;;;;;;;54.10;16.50;;;;;;;7.67;100.00;98636.73;109780;1281;138254;-60
2023/01/19 14:53:58;;;;;;;;;;;;;;;7.68;100.00;98629.47;109902;1275;22457;-61
2023/01/19 14:56:31;;;;;;;39.40;14.00;;;;;;;7.68;100.00;98626.10;109771;1281;124614;-61
2023/01/19 14:58:59;;;;;;;35.80;13.90;;;;;;;7.68;100.00;98624.42;109904;1278;22224;-61
2023/01/19 15:01:29;;;;;;;43.80;14.90;;;;;;;7.68;100.00;98632.94;109864;1274;22311;-61
2023/01/19 15:03:57;;;;;;;43.40;14.50;;;;;;;7.69;100.00;98634.90;109763;1277;138283;-60
2023/01/19 15:06:24;;;;;;;45.60;14.80;;;;;;;7.71;100.00;98629.77;109901;1275;22189;-60
2023/01/19 15:08:52;;;;;;;43.60;12.80;;;;;;;7.71;100.00;98623.42;109762;1275;138236;-61
2023/01/19 15:11:25;;;;;;;40.30;13.80;;;;;;;7.71;100.00;98621.85;109831;1275;22216;-61
2023/01/19 15:13:52;;;;;;;33.10;11.00;;;;;;;7.73;100.00;98618.98;109837;1281;22216;-60
2023/01/19 15:16:18;;;;;;;38.90;11.20;;;;;;;7.74;100.00;98617.27;109703;1278;138151;-61
2023/01/19 15:18:45;;;;;;;47.90;12.00;;;;;;;7.76;100.00;98618.36;109839;1281;22228;-61
2023/01/19 15:21:14;;;;;;;;;;;;;;;7.78;100.00;98616.80;109733;1275;138692;-61
2023/01/19 15:23:40;;;;;;;34.30;12.10;;;;;;;7.79;100.00;98615.34;109823;1275;22230;-60
2023/01/19 15:26:09;;;;;;;37.20;11.80;;;;;;;7.80;100.00;98615.29;109836;1275;22220;-61
2023/01/19 15:28:35;;;;;;;37.30;11.00;;;;;;;7.81;100.00;98618.59;109661;1266;139020;-61
2023/01/19 15:31:02;;;;;;;36.30;11.00;;;;;;;7.82;100.00;98618.81;109845;1275;22342;-61
2023/01/19 15:33:33;;;;;;;;;;;;;;;7.83;100.00;98618.55;109692;1274;138153;-61
2023/01/19 15:36:00;;;;;;;54.70;23.80;;;;;;;7.86;100.00;98617.44;109752;1275;22409;-61
2023/01/19 15:38:26;;;;;;;40.90;13.90;;;;;;;7.87;100.00;98615.48;109772;1274;138826;-60
2023/01/19 15:40:53;;;;;;;;;;;;;;;7.88;100.00;98613.92;109777;1278;23030;-62
2023/01/19 15:43:20;;;;;;;44.00;13.40;;;;;;;7.90;100.00;98616.06;109843;1281;22208;-62
2023/01/19 15:45:47;;;;;;;;;;;;;;;7.93;100.00;98619.17;109778;1276;138092;-61
2023/01/19 15:48:14;;;;;;;35.10;10.90;;;;;;;7.95;100.00;98615.52;109773;1281;23001;-61
2023/01/19 15:50:41;;;;;;;;;;;;;;;7.96;100.00;98615.75;109787;1281;138532;-62
2023/01/19 15:53:15;;;;;;;34.50;10.50;;;;;;;7.98;100.00;98617.13;109842;1278;22397;-61
2023/01/19 15:55:42;;;;;;;41.80;11.10;;;;;;;7.99;100.00;98619.30;109809;1275;22601;-61
2023/01/19 15:58:09;;;;;;;;;;;;;;;8.01;100.00;98620.94;109783;1281;138399;-62
2023/01/19 16:00:39;;;;;;;41.30;14.60;;;;;;;8.03;100.00;98626.38;109847;1275;23070;-61
2023/01/19 16:03:06;;;;;;;42.90;13.20;;;;;;;8.03;100.00;98620.52;109746;1275;138348;-62
2023/01/19 16:05:32;;;;;;;;;;;;;;;8.05;100.00;98619.88;109869;1281;22429;-62
2023/01/19 16:08:09;;;;;;;38.40;11.70;;;;;;;8.07;100.00;98619.06;109817;1281;22355;-61
2023/01/19 16:10:36;;;;;;;42.60;12.40;;;;;;;8.13;100.00;98629.20;109884;1263;22322;-61
2023/01/19 16:13:03;;;;;;;;;;;;;;;8.15;100.00;98636.21;109809;1275;23114;-61
2023/01/19 16:15:30;;;;;;;40.70;12.70;;;;;;;8.14;100.00;98632.08;109747;1275;124186;-62
2023/01/19 16:17:57;;;;;;;33.70;13.50;;;;;;;8.20;100.00;98635.27;109830;1281;22337;-62
2023/01/19 16:20:24;;;;;;;43.90;12.80;;;;;;;8.23;100.00;98638.46;109800;1275;138325;-61
2023/01/19 16:22:50;;;;;;;37.60;12.90;;;;;;;8.23;100.00;98632.38;109863;1275;22618;-62
2023/01/19 16:25:17;;;;;;;;;;;;;;;8.28;100.00;98639.46;109830;1281;22444;-62
2023/01/19 16:27:44;;;;;;;38.40;12.10;;;;;;;8.30;100.00;98638.71;109625;1275;124472;-62
2023/01/19 16:30:11;;;;;;;;;;;;;;;8.33;100.00;98636.77;109819;1275;22418;-62
2023/01/19 16:32:38;;;;;;;32.70;11.10;;;;;;;8.36;100.00;98638.45;109725;1281;125844;-62
2023/01/19 16:35:05;;;;;;;;;;;;;;;8.38;100.00;98636.93;109856;1275;22450;-62
2023/01/19 16:37:31;;;;;;;34.20;10.80;;;;;;;8.40;100.00;98638.89;109835;1281;22326;-62
2023/01/19 16:39:58;;;;;;;;;;;;;;;8.42;100.00;98635.92;109758;1281;138310;-62
2023/01/19 16:42:25;;;;;;;36.30;12.40;;;;;;;8.44;100.00;98637.29;109830;1275;22647;-62
2023/01/19 16:44:53;;;;;;;37.20;12.90;;;;;;;8.43;100.00;98624.15;109714;1278;138603;-62
2023/01/19 16:47:20;;;;;;;48.10;13.00;;;;;;;8.50;100.00;98626.41;109831;1280;22366;-62
2023/01/19 16:49:46;;;;;;;;;;;;;;;8.53;100.00;98622.66;109871;1275;22473;-62
2023/01/19 16:52:13;;;;;;;30.10;11.60;;;;;;;8.56;100.00;98623.80;109746;1281;124351;-62
2023/01/19 16:54:41;;;;;;;35.60;16.10;;;;;;;8.58;100.00;98624.89;109814;1275;23377;-62
2023/01/19 16:57:08;;;;;;;41.80;17.40;;;;;;;8.61;100.00;98624.33;109697;1276;138123;-62
2023/01/19 16:59:36;;;;;;;41.40;13.00;;;;;;;8.65;100.00;98625.80;109851;1281;22625;-62
2023/01/19 17:02:02;;;;;;;35.10;11.80;;;;;;;8.67;100.00;98621.60;109889;1275;22251;-62
2023/01/19 17:04:29;;;;;;;30.80;10.80;;;;;;;8.70;100.00;98625.36;109765;1275;138126;-62
2023/01/19 17:06:56;;;;;;;32.20;10.60;;;;;;;8.74;100.00;98622.23;109830;1281;22359;-62
2023/01/19 17:09:23;;;;;;;29.50;10.10;;;;;;;8.76;100.00;98616.75;109752;1275;138943;-62
2023/01/19 17:11:50;;;;;;;;;;;;;;;8.78;100.00;98614.64;109809;1276;22447;-62
2023/01/19 17:14:20;;;;;;;29.00;9.60;;;;;;;8.80;100.00;98624.09;109702;1280;125646;-62
2023/01/19 17:16:47;;;;;;;36.40;10.40;;;;;;;8.82;100.00;98625.17;109821;1278;22276;-62
2023/01/19 17:19:18;;;;;;;28.10;10.80;;;;;;;8.81;100.00;98618.49;109853;1281;22898;-62
2023/01/19 17:21:47;;;;;;;38.40;11.40;;;;;;;8.85;100.00;98625.02;109707;1274;138291;-62
2023/01/19 17:24:14;;;;;;;42.50;10.20;;;;;;;8.88;100.00;98626.66;109844;1283;22228;-62
2023/01/19 17:26:41;;;;;;;28.90;9.30;;;;;;;8.89;100.00;98628.24;109738;1281;139190;-62
2023/01/19 17:29:08;;;;;;;24.20;8.30;;;;;;;8.89;100.00;98630.75;109886;1282;22198;-62
2023/01/19 17:31:35;;;;;;;;;;;;;;;8.89;100.00;98626.29;109845;1281;23460;-62
2023/01/19 17:34:02;;;;;;;29.30;8.70;;;;;;;8.88;100.00;98624.22;109788;1280;124306;-62
2023/01/19 17:36:30;;;;;;;28.80;9.50;;;;;;;8.86;100.00;98617.96;109840;1281;22378;-62
2023/01/19 17:38:58;;;;;;;26.80;8.00;;;;;;;8.85;100.00;98615.52;109718;1281;138795;-62
2023/01/19 17:41:27;;;;;;;30.00;8.90;;;;;;;8.84;100.00;98610.23;109859;1275;22185;-62
2023/01/19 17:43:54;;;;;;;35.90;8.40;;;;;;;8.82;100.00;98615.23;109890;1281;22856;-62
2023/01/19 17:46:22;;;;;;;33.30;10.00;;;;;;;8.82;100.00;98619.80;109734;1278;138821;-62
2023/01/19 17:48:51;;;;;;;25.90;7.70;;;;;;;8.81;100.00;98614.95;109790;1281;22231;-61
2023/01/19 17:51:17;;;;;;;29.70;9.30;;;;;;;8.81;100.00;98616.37;109762;1274;138606;-62
2023/01/19 17:53:44;;;;;;;;;;;;;;;8.79;100.00;98610.36;109843;1281;23590;-62
2023/01/19 17:56:13;;;;;;;29.10;8.50;;;;;;;8.79;100.00;98616.66;109715;1275;124640;-61